createdAt,value
2023-05-16T00:01:43.808Z,13.2
2023-05-16T00:07:35.911Z,12.4
2023-05-16T00:13:28.872Z,13.4
2023-05-16T00:19:22.786Z,12
2023-05-16T00:25:14.980Z,11.1
2023-05-16T00:31:06.944Z,11.2
2023-05-16T00:36:58.999Z,11.8
2023-05-16T00:42:51.134Z,10.5
2023-05-16T00:48:43.412Z,9.6
2023-05-16T00:54:36.735Z,9.5
2023-05-16T01:00:29.857Z,8.8
2023-05-16T01:06:22.391Z,8.8
2023-05-16T01:12:14.548Z,6.8
2023-05-16T01:18:06.740Z,7.4
2023-05-16T01:23:59.274Z,7.3
2023-05-16T01:29:52.403Z,7.3
2023-05-16T01:35:44.277Z,7.6
2023-05-16T01:41:35.860Z,7.8
2023-05-16T01:47:28.253Z,8.5
2023-05-16T01:53:19.834Z,8.6
2023-05-16T01:59:12.441Z,10.2
2023-05-16T02:05:04.492Z,12.2
2023-05-16T02:10:57.475Z,13.4
2023-05-16T02:16:49.920Z,12.4
2023-05-16T02:22:42.879Z,13.2
2023-05-16T02:28:34.683Z,12.5
2023-05-16T02:34:27.260Z,12.5
2023-05-16T02:40:18.866Z,10.6
2023-05-16T02:46:11.283Z,12.9
2023-05-16T02:52:03.594Z,16.1
2023-05-16T02:57:55.468Z,19.2
2023-05-16T03:03:48.583Z,22.1
2023-05-16T03:09:40.779Z,21.7
2023-05-16T03:15:33.197Z,22.1
2023-05-16T03:21:43.575Z,19.5
2023-05-16T03:27:49.532Z,18.6
2023-05-16T03:33:43.327Z,16.7
2023-05-16T03:39:42.526Z,13.6
2023-05-16T03:45:41.535Z,11
2023-05-16T03:51:40.615Z,11
2023-05-16T03:57:58.640Z,12.7
2023-05-16T04:04:05.740Z,12.3
2023-05-16T04:10:15.362Z,12.3
2023-05-16T04:16:14.941Z,11.1
2023-05-16T04:22:10.434Z,11.1
2023-05-16T04:28:24.688Z,10.1
2023-05-16T04:34:30.992Z,12
2023-05-16T04:40:49.722Z,12
2023-05-16T04:52:57.388Z,15.9
2023-05-16T04:59:32.515Z,16.8
2023-05-16T05:13:41.228Z,15.6
2023-05-16T05:19:54.375Z,14.8
2023-05-16T05:26:00.589Z,13.5
2023-05-16T05:32:20.490Z,12.6
2023-05-16T05:38:27.259Z,12.8
2023-05-16T05:57:13.375Z,10.3
2023-05-16T06:20:56.327Z,9.8
2023-05-16T06:27:05.614Z,8.5
2023-05-16T06:33:02.785Z,7.8
2023-05-16T06:39:14.135Z,7.9
2023-05-16T06:45:20.743Z,7.7
2023-05-16T06:51:22.133Z,8
2023-05-16T07:46:04.855Z,5
2023-05-16T07:52:03.901Z,4.7
2023-05-16T07:57:54.268Z,4
2023-05-16T08:03:47.482Z,4
2023-05-16T08:09:41.846Z,3.5
2023-05-16T08:15:33.914Z,3.7
2023-05-16T08:22:37.943Z,2.6
2023-05-16T08:28:29.890Z,2.9
2023-05-16T08:34:25.916Z,2.6
2023-05-16T08:40:17.146Z,3
2023-05-16T08:46:10.542Z,2.1
2023-05-16T08:52:06.986Z,2.4
2023-05-16T08:59:16.619Z,2.2
2023-05-16T09:05:22.281Z,2.2
2023-05-16T09:24:01.220Z,1.9
2023-05-16T09:36:11.768Z,2
2023-05-16T09:42:14.199Z,2
2023-05-16T09:54:20.279Z,1.8
2023-05-16T10:00:28.519Z,2.1
2023-05-16T10:06:19.339Z,2.6
2023-05-16T10:12:11.844Z,2.5
2023-05-16T10:18:04.875Z,1.8
2023-05-16T10:23:56.980Z,1.8
2023-05-16T10:30:01.035Z,1.9
2023-05-16T10:35:51.814Z,2
2023-05-16T10:41:47.567Z,1.8
2023-05-16T10:47:42.394Z,2.1
2023-05-16T10:53:34.318Z,2.3
2023-05-16T10:59:26.455Z,2.5
2023-05-16T11:05:18.089Z,2.2
2023-05-16T11:11:10.966Z,2
2023-05-16T11:17:03.944Z,2.1
2023-05-16T11:22:55.199Z,2.1
2023-05-16T11:28:47.170Z,2.5
2023-05-16T11:34:39.654Z,2
2023-05-16T11:40:31.336Z,2.1
2023-05-16T11:46:26.842Z,1.9
2023-05-16T11:52:18.323Z,1.7
2023-05-16T11:58:13.263Z,1.6
2023-05-16T12:04:07.647Z,1.7
2023-05-16T12:09:59.508Z,2
2023-05-16T12:15:51.919Z,1.7
2023-05-16T12:21:44.456Z,1.9
2023-05-16T12:27:38.848Z,1.8
2023-05-16T12:33:32.728Z,2.1
2023-05-16T12:39:26.289Z,2.3
2023-05-16T12:45:18.689Z,2.1
2023-05-16T12:51:10.287Z,2.4
2023-05-16T12:57:02.954Z,2.4
2023-05-16T13:03:00.188Z,2.6
2023-05-16T13:08:53.227Z,2.5
2023-05-16T13:14:48.973Z,2.7
2023-05-16T13:20:38.731Z,2.4
2023-05-16T13:26:30.580Z,1.8
2023-05-16T13:32:22.952Z,1.3
2023-05-16T13:38:15.636Z,1.3
2023-05-16T13:44:07.639Z,1.2
2023-05-16T13:50:02.569Z,1.1
2023-05-16T13:55:55.637Z,1.3
2023-05-16T14:01:48.853Z,1.4
2023-05-16T14:07:40.612Z,1.5
2023-05-16T14:13:37.507Z,2.1
2023-05-16T14:19:33.178Z,2
2023-05-16T14:25:26.591Z,1.9
2023-05-16T14:31:20.334Z,2
2023-05-16T14:37:13.598Z,2
2023-05-16T14:43:05.512Z,1.6
2023-05-16T14:48:58.825Z,1.7
2023-05-16T14:54:51.562Z,2.2
2023-05-16T15:00:44.726Z,2.5
2023-05-16T15:06:36.915Z,1.3
2023-05-16T15:12:29.207Z,1.1
2023-05-16T15:18:22.480Z,1.1
2023-05-16T15:24:17.063Z,1.3
2023-05-16T15:30:09.305Z,1.3
2023-05-16T15:36:01.640Z,1.4
2023-05-16T15:42:16.790Z,1.2
2023-05-16T15:48:07.100Z,1.6
2023-05-16T15:53:59.801Z,1.8
2023-05-16T15:59:51.751Z,1.6
2023-05-16T16:05:43.492Z,1.6
2023-05-16T16:11:36.076Z,1.7
2023-05-16T16:17:28.258Z,1.8
2023-05-16T16:23:20.582Z,2
2023-05-16T16:29:13.606Z,2.1
2023-05-16T16:35:05.666Z,2.7
2023-05-16T16:40:57.956Z,1.9
2023-05-16T16:46:50.463Z,1.9
2023-05-16T16:52:42.261Z,1.9
2023-05-16T16:58:34.586Z,2.1
2023-05-16T17:04:26.926Z,2.2
2023-05-16T17:10:19.052Z,2.1
2023-05-16T17:16:11.278Z,2.9
2023-05-16T17:22:03.572Z,2.5
2023-05-16T17:27:56.020Z,2.7
2023-05-16T17:33:48.699Z,3
2023-05-16T17:39:40.780Z,2.5
2023-05-16T17:45:33.614Z,2.8
2023-05-16T17:51:25.067Z,2.1
2023-05-16T17:57:17.417Z,2.5
2023-05-16T18:03:09.562Z,2.4
2023-05-16T18:09:01.802Z,2.6
2023-05-16T18:14:53.792Z,2.8
2023-05-16T18:20:46.486Z,2.6
2023-05-16T18:26:39.097Z,2.7
2023-05-16T18:32:31.662Z,2.4
2023-05-16T18:38:39.353Z,2.4
2023-05-16T18:44:29.978Z,2.4
2023-05-16T18:50:24.190Z,2.3
2023-05-16T18:56:16.574Z,2.7
2023-05-16T19:02:08.741Z,2.2
2023-05-16T19:08:00.785Z,2.8
2023-05-16T19:13:53.173Z,2.7
2023-05-16T19:19:45.542Z,2.7
2023-05-16T19:25:37.354Z,2.4
2023-05-16T19:31:30.504Z,2.4
2023-05-16T19:37:22.266Z,2.7
2023-05-16T19:43:15.072Z,2.5
2023-05-16T19:49:08.771Z,2.6
2023-05-16T19:55:00.578Z,2.5
2023-05-16T20:00:52.974Z,2.5
2023-05-16T20:06:45.082Z,3.2
2023-05-16T20:12:37.133Z,2.6
2023-05-16T20:18:29.386Z,2.9
2023-05-16T20:24:21.432Z,2.7
2023-05-16T20:30:13.712Z,2.5
2023-05-16T20:36:05.891Z,2.7
2023-05-16T20:41:58.266Z,2.5
2023-05-16T20:47:48.806Z,2.4
2023-05-16T20:53:41.375Z,3
2023-05-16T20:59:33.660Z,2.7
2023-05-16T21:05:32.834Z,2.8
2023-05-16T21:11:24.066Z,3.3
2023-05-16T21:17:16.518Z,3.3
2023-05-16T21:23:09.468Z,3.2
2023-05-16T21:29:03.393Z,3
2023-05-16T21:34:57.193Z,3.4
2023-05-16T21:40:49.412Z,2.9
2023-05-16T21:46:41.403Z,3
2023-05-16T21:52:34.301Z,3
2023-05-16T21:58:26.406Z,3.3
2023-05-16T22:04:19.185Z,3
2023-05-16T22:10:12.990Z,2.9
2023-05-16T22:16:11.716Z,2.9
2023-05-16T22:22:03.626Z,3
2023-05-16T22:27:55.887Z,2.7
2023-05-16T22:33:48.739Z,2.8
2023-05-16T22:39:42.756Z,2.9
2023-05-16T22:45:36.491Z,3.2
2023-05-16T22:51:28.577Z,2.8
2023-05-16T22:57:20.704Z,2.4
2023-05-16T23:03:13.562Z,2.9
2023-05-16T23:09:06.079Z,2.8
2023-05-16T23:14:58.652Z,2.6
2023-05-16T23:20:51.111Z,3.1
2023-05-16T23:26:44.509Z,2.8
2023-05-16T23:32:37.176Z,3.4
2023-05-16T23:38:29.683Z,2.8
2023-05-16T23:44:22.665Z,2.8
2023-05-16T23:50:14.210Z,2.5
2023-05-16T23:56:06.633Z,2.9
